createdAt,value
2022-12-05T00:02:09.540Z,3.02
2022-12-05T00:04:37.973Z,3.05
2022-12-05T00:07:08.545Z,3.07
2022-12-05T00:09:37.205Z,3.06
2022-12-05T00:12:05.832Z,3.07
2022-12-05T00:14:34.077Z,3.08
2022-12-05T00:17:02.709Z,3.10
2022-12-05T00:19:31.166Z,3.11
2022-12-05T00:22:00.969Z,3.13
2022-12-05T00:24:30.851Z,3.13
2022-12-05T00:26:58.966Z,3.10
2022-12-05T00:29:27.619Z,3.13
2022-12-05T00:31:56.004Z,3.16
2022-12-05T00:34:24.395Z,3.17
2022-12-05T00:36:52.850Z,3.16
2022-12-05T00:39:21.952Z,3.16
2022-12-05T00:41:51.906Z,3.18
2022-12-05T00:44:20.301Z,3.19
2022-12-05T00:46:48.570Z,3.16
2022-12-05T00:49:16.916Z,3.19
2022-12-05T00:51:45.294Z,3.21
2022-12-05T00:54:15.405Z,3.21
2022-12-05T00:56:44.275Z,3.20
2022-12-05T00:59:17.098Z,3.24
2022-12-05T01:01:46.059Z,3.26
2022-12-05T01:04:16.299Z,3.25
2022-12-05T01:06:44.560Z,3.26
2022-12-05T01:09:14.360Z,3.29
2022-12-05T01:11:42.778Z,3.26
2022-12-05T01:14:10.930Z,3.28
2022-12-05T01:16:41.094Z,3.29
2022-12-05T01:19:12.060Z,3.28
2022-12-05T01:21:40.208Z,3.32
2022-12-05T01:24:08.723Z,3.29
2022-12-05T01:26:37.011Z,3.32
2022-12-05T01:29:05.653Z,3.36
2022-12-05T01:31:35.057Z,3.35
2022-12-05T01:34:06.018Z,3.33
2022-12-05T01:36:35.169Z,3.34
2022-12-05T01:39:03.461Z,3.35
2022-12-05T01:41:33.566Z,3.37
2022-12-05T01:44:03.415Z,3.38
2022-12-05T01:46:33.749Z,3.41
2022-12-05T01:49:08.479Z,3.41
2022-12-05T01:51:37.706Z,3.43
2022-12-05T01:54:06.550Z,3.45
2022-12-05T01:56:36.307Z,3.47
2022-12-05T01:59:05.862Z,3.46
2022-12-05T02:01:34.169Z,3.46
2022-12-05T02:04:03.211Z,3.47
2022-12-05T02:06:33.474Z,3.50
2022-12-05T02:09:01.731Z,3.54
2022-12-05T02:11:31.500Z,3.59
2022-12-05T02:14:17.571Z,3.65
2022-12-05T02:16:51.640Z,3.69
2022-12-05T02:19:31.293Z,3.71
2022-12-05T02:22:17.509Z,3.75
2022-12-05T02:25:00.532Z,3.75
2022-12-05T02:27:37.527Z,3.79
2022-12-05T02:30:09.069Z,3.78
2022-12-05T02:32:45.661Z,3.82
2022-12-05T02:35:18.074Z,3.80
2022-12-05T02:37:52.374Z,3.83
2022-12-05T02:40:25.451Z,3.85
2022-12-05T02:43:00.582Z,3.83
2022-12-05T02:45:32.829Z,3.85
2022-12-05T02:48:01.481Z,3.84
2022-12-05T02:50:32.462Z,3.83
2022-12-05T02:53:03.741Z,3.83
2022-12-05T02:55:32.934Z,3.85
2022-12-05T02:58:05.225Z,3.85
2022-12-05T03:00:35.940Z,3.82
2022-12-05T03:03:12.007Z,3.82
2022-12-05T03:05:42.021Z,3.82
2022-12-05T03:08:14.173Z,3.82
2022-12-05T03:10:44.256Z,3.82
2022-12-05T03:13:15.641Z,3.84
2022-12-05T03:15:46.962Z,3.83
2022-12-05T03:18:18.881Z,3.82
2022-12-05T03:20:48.733Z,3.81
2022-12-05T03:23:20.106Z,3.78
2022-12-05T03:25:55.970Z,3.75
2022-12-05T03:28:26.670Z,3.74
2022-12-05T03:30:57.674Z,3.75
2022-12-05T03:33:29.330Z,3.78
2022-12-05T03:36:01.164Z,3.75
2022-12-05T03:38:37.054Z,3.75
2022-12-05T03:41:09.680Z,3.80
2022-12-05T03:43:42.572Z,3.78
2022-12-05T03:46:14.064Z,3.78
2022-12-05T03:48:48.228Z,3.77
2022-12-05T03:51:18.298Z,3.77
2022-12-05T03:53:49.834Z,3.83
2022-12-05T03:56:22.403Z,3.83
2022-12-05T03:58:55.375Z,3.79
2022-12-05T04:01:27.208Z,3.81
2022-12-05T04:03:57.467Z,3.82
2022-12-05T04:06:28.359Z,3.83
2022-12-05T04:08:58.879Z,3.80
2022-12-05T04:11:28.919Z,3.76
2022-12-05T04:14:01.979Z,3.63
2022-12-05T04:16:52.638Z,3.56
2022-12-05T04:19:25.615Z,3.43
2022-12-05T04:21:53.660Z,3.39
2022-12-05T04:24:41.435Z,3.31
2022-12-05T04:27:13.506Z,3.21
2022-12-05T04:29:46.313Z,3.17
2022-12-05T04:32:15.887Z,3.11
2022-12-05T04:34:47.799Z,3.07
2022-12-05T04:37:19.736Z,3.06
2022-12-05T04:39:50.169Z,3.03
2022-12-05T04:42:20.919Z,3.04
2022-12-05T04:44:51.702Z,3.03
2022-12-05T04:47:23.424Z,3.06
2022-12-05T04:49:53.963Z,3.07
2022-12-05T04:52:23.398Z,3.09
2022-12-05T04:54:54.511Z,3.10
2022-12-05T04:57:25.983Z,3.14
2022-12-05T04:59:56.763Z,3.17
2022-12-05T05:02:29.793Z,3.20
2022-12-05T05:05:00.226Z,3.22
2022-12-05T05:07:28.533Z,3.27
2022-12-05T05:09:57.391Z,3.27
2022-12-05T05:12:26.068Z,3.28
2022-12-05T05:14:54.133Z,3.33
2022-12-05T05:17:22.247Z,3.37
2022-12-05T05:19:51.976Z,3.38
2022-12-05T05:22:20.180Z,3.41
2022-12-05T05:24:48.498Z,3.43
2022-12-05T05:27:16.680Z,3.46
2022-12-05T05:29:45.219Z,3.46
2022-12-05T05:32:13.494Z,3.41
2022-12-05T05:34:41.720Z,3.43
2022-12-05T05:37:11.382Z,3.49
2022-12-05T05:39:39.496Z,3.52
2022-12-05T05:42:07.589Z,3.55
2022-12-05T05:44:35.777Z,3.56
2022-12-05T05:47:04.128Z,3.57
2022-12-05T05:49:32.275Z,3.55
2022-12-05T05:52:00.480Z,3.55
2022-12-05T05:54:30.597Z,3.51
2022-12-05T05:56:58.731Z,3.55
2022-12-05T05:59:26.806Z,3.53
2022-12-05T06:01:55.190Z,3.52
2022-12-05T06:04:23.572Z,3.45
2022-12-05T06:06:51.958Z,3.42
2022-12-05T06:09:20.760Z,3.33
2022-12-05T06:11:50.371Z,3.33
2022-12-05T06:14:18.799Z,3.23
2022-12-05T06:16:46.927Z,3.18
2022-12-05T06:19:15.230Z,3.12
2022-12-05T06:21:43.507Z,3.05
2022-12-05T06:24:11.640Z,3.00
2022-12-05T06:26:39.779Z,2.92
2022-12-05T06:29:09.469Z,2.85
2022-12-05T06:31:37.875Z,2.82
2022-12-05T06:34:06.242Z,2.81
2022-12-05T06:36:34.538Z,2.77
2022-12-05T06:39:02.935Z,2.78
2022-12-05T06:41:31.024Z,2.77
2022-12-05T06:44:02.136Z,2.71
2022-12-05T06:46:32.231Z,2.67
2022-12-05T06:49:00.743Z,2.63
2022-12-05T06:51:28.902Z,2.63
2022-12-05T06:53:57.045Z,2.52
2022-12-05T06:56:25.445Z,2.47
2022-12-05T06:58:55.809Z,2.45
2022-12-05T07:01:39.343Z,2.39
2022-12-05T07:04:11.349Z,2.29
2022-12-05T07:06:40.228Z,2.29
2022-12-05T07:09:08.818Z,2.35
2022-12-05T07:11:37.117Z,2.39
2022-12-05T07:14:14.682Z,2.46
2022-12-05T07:16:47.706Z,2.51
2022-12-05T07:19:17.641Z,2.50
2022-12-05T07:21:45.769Z,2.49
2022-12-05T07:24:13.798Z,2.50
2022-12-05T07:26:41.965Z,2.55
2022-12-05T07:29:11.262Z,2.58
2022-12-05T07:31:39.837Z,2.59
2022-12-05T07:34:08.155Z,2.64
2022-12-05T07:36:37.672Z,2.70
2022-12-05T07:39:06.095Z,2.73
2022-12-05T07:41:35.847Z,2.69
2022-12-05T07:44:08.972Z,2.66
2022-12-05T07:46:37.085Z,2.68
2022-12-05T07:49:05.217Z,2.69
2022-12-05T07:51:33.808Z,2.69
2022-12-05T07:54:03.572Z,2.70
2022-12-05T07:56:31.762Z,2.72
2022-12-05T07:58:59.864Z,2.79
2022-12-05T08:01:29.972Z,2.81
2022-12-05T08:03:59.576Z,2.89
2022-12-05T08:06:29.466Z,2.99
2022-12-05T08:08:58.905Z,3.07
2022-12-05T08:11:30.250Z,3.13
2022-12-05T08:13:59.161Z,3.24
2022-12-05T08:16:28.129Z,3.29
2022-12-05T08:18:57.272Z,3.36
2022-12-05T08:21:26.455Z,3.39
2022-12-05T08:23:54.664Z,3.44
2022-12-05T08:26:24.720Z,3.45
2022-12-05T08:28:54.840Z,3.49
2022-12-05T08:31:24.534Z,3.52
2022-12-05T08:33:58.803Z,3.56
2022-12-05T08:36:28.389Z,3.57
2022-12-05T08:38:57.897Z,3.52
2022-12-05T08:41:28.899Z,3.46
2022-12-05T08:43:58.792Z,3.46
2022-12-05T08:46:27.330Z,3.38
2022-12-05T08:48:55.482Z,3.32
2022-12-05T08:51:23.707Z,3.26
2022-12-05T08:53:52.009Z,3.25
2022-12-05T08:56:25.057Z,3.27
2022-12-05T08:58:58.506Z,3.31
2022-12-05T09:01:33.456Z,3.29
2022-12-05T09:04:02.566Z,3.31
2022-12-05T09:06:31.522Z,3.33
2022-12-05T09:09:00.700Z,3.38
2022-12-05T09:11:30.757Z,3.42
2022-12-05T09:14:00.144Z,3.49
2022-12-05T09:16:36.551Z,3.53
2022-12-05T09:19:12.380Z,3.59
2022-12-05T09:21:40.731Z,3.67
2022-12-05T09:24:09.394Z,3.72
2022-12-05T09:26:37.495Z,3.76
2022-12-05T09:29:07.157Z,3.80
2022-12-05T09:31:37.276Z,3.80
2022-12-05T09:34:06.111Z,3.83
2022-12-05T09:36:35.647Z,3.85
2022-12-05T09:39:05.170Z,3.93
2022-12-05T09:42:02.958Z,3.96
2022-12-05T09:44:37.780Z,4.04
2022-12-05T09:47:10.541Z,4.08
2022-12-05T09:49:41.421Z,4.12
2022-12-05T09:52:12.610Z,4.13
2022-12-05T09:54:40.864Z,4.12
2022-12-05T09:57:11.416Z,4.06
2022-12-05T09:59:39.641Z,4.06
2022-12-05T10:02:23.562Z,4.08
2022-12-05T10:05:00.602Z,4.04
2022-12-05T10:07:36.147Z,4.05
2022-12-05T10:10:20.280Z,4.07
2022-12-05T10:12:56.397Z,4.11
2022-12-05T10:15:28.037Z,4.10
2022-12-05T10:17:59.463Z,4.13
2022-12-05T10:20:30.136Z,4.32
2022-12-05T10:23:02.185Z,4.49
2022-12-05T10:25:33.006Z,4.56
2022-12-05T10:28:02.379Z,4.67
2022-12-05T10:30:31.548Z,4.67
2022-12-05T10:33:01.840Z,4.66
2022-12-05T10:35:35.805Z,4.68
2022-12-05T10:38:31.148Z,4.65
2022-12-05T10:41:01.134Z,4.68
2022-12-05T10:43:31.134Z,4.70
2022-12-05T10:46:00.012Z,4.71
2022-12-05T10:48:28.350Z,4.75
2022-12-05T10:50:57.740Z,4.77
2022-12-05T10:53:27.554Z,4.75
2022-12-05T10:56:29.197Z,4.85
2022-12-05T10:58:55.867Z,4.84
2022-12-05T11:01:25.197Z,4.83
2022-12-05T11:03:57.471Z,4.93
2022-12-05T11:06:26.984Z,4.98
2022-12-05T11:09:04.519Z,5.01
2022-12-05T11:11:35.457Z,5.12
2022-12-05T11:14:05.293Z,5.21
2022-12-05T11:16:34.868Z,5.47
2022-12-05T11:19:29.472Z,5.76
2022-12-05T11:21:57.994Z,5.98
2022-12-05T11:24:28.637Z,6.23
2022-12-05T11:26:58.379Z,6.28
2022-12-05T11:29:31.444Z,6.37
2022-12-05T11:32:00.128Z,6.34
2022-12-05T11:34:31.199Z,6.38
2022-12-05T11:37:01.612Z,6.66
2022-12-05T11:39:29.904Z,7.01
2022-12-05T11:42:25.075Z,7.11
2022-12-05T11:45:18.117Z,7.00
2022-12-05T11:47:55.216Z,6.89
2022-12-05T11:50:29.448Z,6.90
2022-12-05T11:53:02.087Z,6.95
2022-12-05T11:55:44.523Z,7.06
2022-12-05T11:58:38.691Z,7.22
2022-12-05T12:01:13.680Z,7.20
2022-12-05T12:03:48.792Z,7.23
2022-12-05T12:06:24.278Z,7.06
2022-12-05T12:08:59.548Z,6.96
2022-12-05T12:11:31.312Z,6.96
2022-12-05T12:14:03.058Z,6.87
2022-12-05T12:16:37.955Z,6.84
2022-12-05T12:19:22.051Z,6.87
2022-12-05T12:22:01.467Z,6.93
2022-12-05T12:24:38.571Z,6.93
2022-12-05T12:27:15.041Z,6.91
2022-12-05T12:29:49.337Z,7.02
2022-12-05T12:32:26.138Z,7.20
2022-12-05T12:35:05.226Z,7.44
2022-12-05T12:37:39.445Z,7.52
2022-12-05T12:40:14.764Z,7.56
2022-12-05T12:42:49.799Z,7.59
2022-12-05T12:45:41.795Z,7.52
2022-12-05T12:48:17.191Z,7.52
2022-12-05T12:50:46.698Z,7.60
2022-12-05T12:53:39.278Z,7.61
2022-12-05T12:56:12.112Z,7.69
2022-12-05T12:58:45.947Z,7.46
2022-12-05T13:01:23.910Z,7.19
2022-12-05T13:04:02.529Z,7.20
2022-12-05T13:06:33.687Z,7.00
2022-12-05T13:09:03.824Z,6.83
2022-12-05T13:11:36.694Z,6.70
2022-12-05T13:14:05.315Z,6.65
2022-12-05T13:16:37.989Z,6.53
2022-12-05T13:19:16.814Z,6.55
2022-12-05T13:21:45.279Z,6.42
2022-12-05T13:24:14.505Z,6.43
2022-12-05T13:26:47.345Z,6.38
2022-12-05T13:29:20.898Z,6.38
2022-12-05T13:31:49.074Z,6.40
2022-12-05T13:34:36.251Z,6.48
2022-12-05T13:37:30.575Z,6.48
2022-12-05T13:40:16.743Z,6.48
2022-12-05T13:42:45.560Z,6.52
2022-12-05T13:45:19.263Z,6.59
2022-12-05T13:47:53.625Z,6.68
2022-12-05T13:50:28.813Z,6.78
2022-12-05T13:53:00.787Z,6.83
2022-12-05T13:55:35.658Z,6.85
2022-12-05T13:58:04.895Z,6.81
2022-12-05T14:00:35.134Z,6.80
2022-12-05T14:03:08.011Z,6.79
2022-12-05T14:06:00.161Z,6.74
2022-12-05T14:08:49.469Z,6.64
2022-12-05T14:11:19.183Z,6.54
2022-12-05T14:13:47.605Z,6.56
2022-12-05T14:16:49.660Z,6.56
2022-12-05T14:19:37.604Z,6.46
2022-12-05T14:22:15.655Z,6.37
2022-12-05T14:24:50.192Z,6.39
2022-12-05T14:27:22.974Z,6.35
2022-12-05T14:29:57.703Z,6.35
2022-12-05T14:32:29.194Z,6.26
2022-12-05T14:34:59.393Z,6.25
2022-12-05T14:37:30.193Z,6.22
2022-12-05T14:40:00.113Z,6.17
2022-12-05T14:42:36.766Z,6.13
2022-12-05T14:45:22.638Z,6.13
2022-12-05T14:47:52.748Z,6.04
2022-12-05T14:50:25.885Z,6.02
2022-12-05T14:53:12.695Z,6.02
2022-12-05T14:55:40.992Z,6.05
2022-12-05T14:58:17.645Z,6.05
2022-12-05T15:00:48.283Z,6.10
2022-12-05T15:03:24.439Z,6.11
2022-12-05T15:05:52.840Z,6.06
2022-12-05T15:08:21.631Z,6.03
2022-12-05T15:10:51.554Z,5.96
2022-12-05T15:13:24.840Z,5.90
2022-12-05T15:15:58.393Z,5.93
2022-12-05T15:18:29.459Z,5.84
2022-12-05T15:20:58.902Z,5.80
2022-12-05T15:23:42.779Z,5.81
2022-12-05T15:26:45.093Z,5.80
2022-12-05T15:29:08.320Z,5.82
2022-12-05T15:31:37.747Z,5.81
2022-12-05T15:34:08.649Z,5.82
2022-12-05T15:36:38.375Z,5.81
2022-12-05T15:39:07.423Z,5.81
2022-12-05T15:41:35.706Z,5.77
2022-12-05T15:44:06.573Z,5.74
2022-12-05T15:46:36.620Z,5.68
2022-12-05T15:49:17.725Z,5.63
2022-12-05T15:51:47.806Z,5.63
2022-12-05T15:54:18.190Z,5.58
2022-12-05T15:56:49.433Z,5.57
2022-12-05T15:59:20.155Z,5.55
2022-12-05T16:01:52.865Z,5.48
2022-12-05T16:04:29.403Z,5.41
2022-12-05T16:07:00.608Z,5.36
2022-12-05T16:09:32.712Z,5.37
2022-12-05T16:12:02.439Z,5.33
2022-12-05T16:17:22.749Z,5.26
2022-12-05T16:19:51.741Z,5.24
2022-12-05T16:22:23.595Z,5.22
2022-12-05T16:24:56.514Z,5.13
2022-12-05T16:27:26.019Z,5.10
2022-12-05T16:30:11.129Z,5.07
2022-12-05T16:32:42.040Z,5.06
2022-12-05T16:35:29.119Z,5.05
2022-12-05T16:38:04.098Z,5.02
2022-12-05T16:40:32.276Z,5.00
2022-12-05T16:43:03.881Z,4.94
2022-12-05T16:45:39.822Z,4.95
2022-12-05T16:48:18.334Z,4.90
2022-12-05T16:50:47.353Z,4.89
2022-12-05T16:53:23.785Z,4.86
2022-12-05T16:55:52.892Z,4.86
2022-12-05T16:58:22.679Z,4.84
2022-12-05T17:00:51.286Z,4.81
2022-12-05T17:03:36.648Z,4.77
2022-12-05T17:06:05.180Z,4.79
2022-12-05T17:08:33.598Z,4.80
2022-12-05T17:11:03.838Z,4.78
2022-12-05T17:13:32.379Z,4.80
2022-12-05T17:16:00.757Z,4.79
2022-12-05T17:18:32.081Z,4.76
2022-12-05T17:21:02.110Z,4.70
2022-12-05T17:23:30.216Z,4.66
2022-12-05T17:25:59.483Z,4.67
2022-12-05T17:28:27.715Z,4.65
2022-12-05T17:30:56.158Z,4.63
2022-12-05T17:33:24.304Z,4.62
2022-12-05T17:35:54.093Z,4.65
2022-12-05T17:38:22.227Z,4.68
2022-12-05T17:40:50.350Z,4.68
2022-12-05T17:43:24.803Z,4.66
2022-12-05T17:45:54.895Z,4.62
2022-12-05T17:48:24.028Z,4.53
2022-12-05T17:50:53.973Z,4.50
2022-12-05T17:53:22.654Z,4.49
2022-12-05T17:55:51.503Z,4.44
2022-12-05T17:58:19.590Z,4.40
2022-12-05T18:00:48.563Z,4.38
2022-12-05T18:03:18.003Z,4.43
2022-12-05T18:05:46.224Z,4.46
2022-12-05T18:08:17.129Z,4.44
2022-12-05T18:10:46.213Z,4.41
2022-12-05T18:13:17.474Z,4.37
2022-12-05T18:15:47.436Z,4.31
2022-12-05T18:18:17.613Z,4.27
2022-12-05T18:20:45.897Z,4.27
2022-12-05T18:23:17.081Z,4.25
2022-12-05T18:25:47.236Z,4.25
2022-12-05T18:28:17.931Z,4.31
2022-12-05T18:30:48.005Z,4.31
2022-12-05T18:33:16.349Z,4.41
2022-12-05T18:35:45.767Z,4.47
2022-12-05T18:38:14.282Z,4.54
2022-12-05T18:40:44.067Z,4.54
2022-12-05T18:43:12.505Z,4.63
2022-12-05T18:45:41.505Z,4.65
2022-12-05T18:48:37.706Z,4.70
2022-12-05T18:51:07.108Z,4.71
2022-12-05T18:53:35.337Z,4.75
2022-12-05T18:56:22.212Z,4.74
2022-12-05T18:58:55.667Z,4.76
2022-12-05T19:01:24.089Z,4.79
2022-12-05T19:03:52.697Z,4.78
2022-12-05T19:06:22.526Z,4.74
2022-12-05T19:08:51.320Z,4.74
2022-12-05T19:11:21.442Z,4.74
2022-12-05T19:13:49.609Z,4.73
2022-12-05T19:16:18.804Z,4.71
2022-12-05T19:18:47.410Z,4.73
2022-12-05T19:21:15.578Z,4.70
2022-12-05T19:23:43.846Z,4.65
2022-12-05T19:26:12.085Z,4.60
2022-12-05T19:28:42.259Z,4.55
2022-12-05T19:31:11.242Z,4.47
2022-12-05T19:33:41.064Z,4.40
2022-12-05T19:36:11.739Z,4.38
2022-12-05T19:38:40.600Z,4.35
2022-12-05T19:41:09.508Z,4.29
2022-12-05T19:43:38.164Z,4.29
2022-12-05T19:46:08.894Z,4.30
2022-12-05T19:48:37.487Z,4.31
2022-12-05T19:51:06.934Z,4.30
2022-12-05T19:53:37.877Z,4.39
2022-12-05T19:56:07.335Z,4.42
2022-12-05T19:58:36.188Z,4.43
2022-12-05T20:01:10.081Z,4.41
2022-12-05T20:03:39.284Z,4.36
2022-12-05T20:06:09.302Z,4.30
2022-12-05T20:08:38.218Z,4.29
2022-12-05T20:11:06.745Z,4.21
2022-12-05T20:13:46.604Z,4.15
2022-12-05T20:16:18.674Z,4.09
2022-12-05T20:18:47.252Z,4.03
2022-12-05T20:21:16.565Z,3.97
2022-12-05T20:23:45.054Z,3.91
2022-12-05T20:26:14.604Z,3.84
2022-12-05T20:28:42.696Z,3.82
2022-12-05T20:31:13.188Z,3.83
2022-12-05T20:33:43.336Z,3.90
2022-12-05T20:36:15.764Z,3.91
2022-12-05T20:38:44.417Z,3.95
2022-12-05T20:41:15.468Z,3.97
2022-12-05T20:43:44.418Z,3.99
2022-12-05T20:46:13.771Z,3.99
2022-12-05T20:48:43.406Z,3.92
2022-12-05T20:51:12.968Z,3.81
2022-12-05T20:53:42.454Z,3.73
2022-12-05T20:56:11.806Z,3.63
2022-12-05T20:58:44.893Z,3.57
2022-12-05T21:01:14.895Z,3.43
2022-12-05T21:03:45.755Z,3.36
2022-12-05T21:06:17.512Z,3.25
2022-12-05T21:08:49.605Z,3.16
2022-12-05T21:11:25.730Z,3.03
2022-12-05T21:14:01.234Z,2.93
2022-12-05T21:16:34.781Z,2.84
2022-12-05T21:19:10.606Z,2.79
2022-12-05T21:21:42.056Z,2.70
2022-12-05T21:24:19.778Z,2.61
2022-12-05T21:26:53.117Z,2.51
2022-12-05T21:29:27.855Z,2.44
2022-12-05T21:32:02.346Z,2.38
2022-12-05T21:34:35.155Z,2.32
2022-12-05T21:37:04.737Z,2.31
2022-12-05T21:39:33.112Z,2.28
2022-12-05T21:42:01.563Z,2.31
2022-12-05T21:44:29.690Z,2.32
2022-12-05T21:46:58.062Z,2.33
2022-12-05T21:49:27.606Z,2.38
2022-12-05T21:51:57.513Z,2.45
2022-12-05T21:54:26.633Z,2.51
2022-12-05T21:56:55.019Z,2.55
2022-12-05T21:59:23.502Z,2.64
2022-12-05T22:01:51.614Z,2.70
2022-12-05T22:04:19.972Z,2.76
2022-12-05T22:06:49.355Z,2.83
2022-12-05T22:09:19.306Z,2.86
2022-12-05T22:11:47.642Z,2.94
2022-12-05T22:14:21.562Z,3.02
2022-12-05T22:16:51.890Z,3.11
2022-12-05T22:19:20.715Z,3.20
2022-12-05T22:21:51.389Z,3.32
2022-12-05T22:24:24.474Z,3.36
2022-12-05T22:26:55.356Z,3.41
2022-12-05T22:29:26.478Z,3.43
2022-12-05T22:31:58.577Z,3.39
2022-12-05T22:34:29.446Z,3.36
2022-12-05T22:36:58.370Z,3.27
2022-12-05T22:39:30.855Z,3.26
2022-12-05T22:42:04.059Z,3.16
2022-12-05T22:44:33.200Z,3.11
2022-12-05T22:47:04.283Z,2.99
2022-12-05T22:49:32.647Z,2.84
2022-12-05T22:52:00.949Z,2.86
2022-12-05T22:54:31.773Z,2.80
2022-12-05T22:57:02.137Z,2.76
2022-12-05T22:59:31.269Z,2.71
2022-12-05T23:02:00.221Z,2.67
2022-12-05T23:04:29.520Z,2.60
2022-12-05T23:07:00.810Z,2.51
2022-12-05T23:09:30.877Z,2.50
2022-12-05T23:12:01.693Z,2.48
2022-12-05T23:14:30.933Z,2.43
2022-12-05T23:17:05.172Z,2.45
2022-12-05T23:19:37.041Z,2.42
2022-12-05T23:22:05.448Z,2.50
2022-12-05T23:24:36.408Z,2.52
2022-12-05T23:27:05.554Z,2.56
2022-12-05T23:29:33.814Z,2.58
2022-12-05T23:32:03.284Z,2.64
2022-12-05T23:34:35.089Z,2.67
2022-12-05T23:37:03.471Z,2.75
2022-12-05T23:39:32.338Z,2.79
2022-12-05T23:42:02.319Z,2.83
2022-12-05T23:44:30.759Z,2.87
2022-12-05T23:46:59.514Z,2.76
2022-12-05T23:49:45.144Z,2.80
2022-12-05T23:52:13.435Z,2.77
2022-12-05T23:54:44.145Z,2.78
2022-12-05T23:57:17.515Z,2.69
2022-12-05T23:59:46.403Z,2.62
